Time;durP1;ratioP1;P1;durP2;ratioP2;P2;SDS_P1;SDS_P2;PMS_P1;PMS_P2;Temp;Humidity;BMP_temperature;BMP_pressure;BME280_temperature;BME280_humidity;BME280_pressure;Samples;Min_cycle;Max_cycle;Signal;HPM_P1;HPM_P2
2021/07/17 00:00:22;;;;;;;15.52;13.23;;;;;;;21.71;68.41;98735.53;5054571;28;20049;-69
2021/07/17 00:02:49;;;;;;;14.52;12.98;;;;;;;21.67;68.22;98735.38;5054585;28;20049;-69
2021/07/17 00:05:16;;;;;;;16.35;13.00;;;;;;;21.64;68.49;98733.34;5036786;28;20044;-70
2021/07/17 00:07:43;;;;;;;18.45;13.68;;;;;;;21.62;68.53;98734.78;5054439;28;20125;-69
2021/07/17 00:10:15;;;;;;;16.08;13.38;;;;;;;21.58;68.83;98726.56;5036737;28;20088;-70
2021/07/17 00:12:41;;;;;;;14.35;12.25;;;;;;;21.55;68.91;98729.91;5069927;28;20115;-69
2021/07/17 00:15:08;;;;;;;16.67;12.50;;;;;;;21.51;68.99;98720.91;5069713;28;20068;-71
2021/07/17 00:17:34;;;;;;;17.63;12.77;;;;;;;21.48;69.07;98716.94;5054682;28;20056;-70
2021/07/17 00:20:00;;;;;;;16.48;13.77;;;;;;;21.55;68.95;98724.50;5036512;28;20033;-71
2021/07/17 00:22:26;;;;;;;15.40;13.30;;;;;;;21.63;68.52;98714.78;5054541;28;20147;-69
2021/07/17 00:24:51;;;;;;;13.48;12.07;;;;;;;21.64;68.21;98719.06;5019879;28;20103;-70
2021/07/17 00:27:17;;;;;;;17.20;13.30;;;;;;;21.61;68.65;98725.91;5069460;28;20041;-69
2021/07/17 00:29:45;;;;;;;16.70;13.30;;;;;;;21.63;68.68;98734.47;5053998;28;20516;-69
2021/07/17 00:32:11;;;;;;;16.17;13.73;;;;;;;21.60;68.81;98735.13;5069456;28;20114;-70
2021/07/17 00:34:37;;;;;;;17.52;13.60;;;;;;;21.57;69.10;98735.78;5035639;28;20087;-69
2021/07/17 00:37:03;;;;;;;16.80;13.07;;;;;;;21.62;68.91;98740.16;5054000;28;20414;-71
2021/07/17 00:39:29;;;;;;;15.48;12.45;;;;;;;21.62;68.96;98738.28;5053843;28;20039;-69
2021/07/17 00:41:55;;;;;;;17.50;14.10;;;;;;;21.60;68.96;98740.50;5052617;28;20473;-70
2021/07/17 00:44:21;;;;;;;15.48;12.65;;;;;;;21.55;69.35;98738.00;5053996;28;20119;-70
2021/07/17 00:46:47;;;;;;;15.68;13.02;;;;;;;21.47;69.76;98742.34;5052854;28;20103;-68
2021/07/17 00:49:13;;;;;;;17.77;13.65;;;;;;;21.45;70.02;98743.78;5052732;28;20041;-68
2021/07/17 00:51:39;;;;;;;15.75;14.07;;;;;;;21.43;70.31;98746.78;5018767;28;20497;-70
2021/07/17 00:54:06;;;;;;;15.43;13.23;;;;;;;21.46;69.99;98745.34;5052652;28;20045;-70
2021/07/17 00:56:33;;;;;;;16.17;12.93;;;;;;;21.40;70.33;98736.63;5068891;28;20051;-70
2021/07/17 00:59:02;;;;;;;16.08;13.00;;;;;;;21.42;70.56;98741.72;5052155;28;20055;-70
2021/07/17 01:01:28;;;;;;;15.65;13.98;;;;;;;21.40;70.98;98739.34;5052212;28;20041;-70
2021/07/17 01:03:54;;;;;;;18.92;14.32;;;;;;;21.41;71.57;98732.03;5035865;28;20421;-69
2021/07/17 01:06:20;;;;;;;17.90;15.13;;;;;;;21.41;71.71;98734.72;5052330;28;20140;-69
2021/07/17 01:08:46;;;;;;;18.40;14.02;;;;;;;21.36;72.31;98724.94;5052110;28;20486;-69
2021/07/17 01:11:12;;;;;;;19.38;15.43;;;;;;;21.30;72.86;98724.28;5053516;28;20052;-69
2021/07/17 01:13:38;;;;;;;19.58;15.23;;;;;;;21.26;72.82;98731.44;5052265;28;20486;-71
2021/07/17 01:16:04;;;;;;;19.45;14.70;;;;;;;21.32;73.42;98727.47;5035475;28;20045;-70
2021/07/17 01:18:37;;;;;;;20.25;14.68;;;;;;;21.37;73.12;98731.91;5068650;28;20045;-70
2021/07/17 01:21:08;;;;;;;20.20;15.13;;;;;;;21.43;72.94;98724.41;5035885;28;20051;-70
2021/07/17 01:23:34;;;;;;;23.08;17.58;;;;;;;21.48;73.01;98724.25;5053082;28;20047;-69
2021/07/17 01:26:00;;;;;;;28.15;22.65;;;;;;;21.47;72.75;98717.25;5053241;28;20063;-70
2021/07/17 01:28:26;;;;;;;21.88;18.55;;;;;;;21.59;73.09;98728.16;5053225;28;20490;-69
2021/07/17 01:30:52;;;;;;;24.67;15.68;;;;;;;21.66;72.71;98720.31;5053021;28;20044;-69
2021/07/17 01:33:18;;;;;;;22.05;16.73;;;;;;;21.80;72.31;98730.09;5051716;28;20040;-70
2021/07/17 01:35:44;;;;;;;24.42;17.20;;;;;;;21.90;72.20;98730.47;5052951;28;20174;-70
2021/07/17 01:38:10;;;;;;;22.60;17.35;;;;;;;22.04;71.79;98727.53;5052665;28;20060;-69
2021/07/17 01:40:36;;;;;;;20.55;16.92;;;;;;;22.14;71.39;98721.72;5035248;28;20443;-69
2021/07/17 01:43:02;;;;;;;19.15;15.77;;;;;;;22.26;71.22;98722.94;5051628;28;20052;-70
2021/07/17 01:45:30;;;;;;;20.35;17.20;;;;;;;22.39;70.50;98722.66;5034804;28;20037;-69
2021/07/17 01:47:56;;;;;;;41.28;31.00;;;;;;;22.50;70.24;98728.44;5035108;28;20488;-69
2021/07/17 01:50:25;;;;;;;35.17;29.95;;;;;;;22.65;69.43;98713.53;5052683;28;20128;-69
2021/07/17 01:52:51;;;;;;;30.27;23.73;;;;;;;22.82;69.17;98723.34;5052512;28;20049;-71
2021/07/17 01:55:17;;;;;;;31.95;24.55;;;;;;;22.99;68.89;98719.69;5018344;28;20047;-69
2021/07/17 01:57:47;;;;;;;31.13;25.42;;;;;;;23.14;68.12;98713.63;5051262;28;20060;-69
2021/07/17 02:00:13;;;;;;;27.20;23.92;;;;;;;23.36;67.44;98715.09;5051125;28;20545;-70
2021/07/17 02:02:39;;;;;;;25.50;22.23;;;;;;;23.53;66.45;98720.28;5051925;28;20506;-69
2021/07/17 02:05:05;;;;;;;33.88;28.60;;;;;;;23.73;66.07;98715.88;5034403;28;20198;-70
2021/07/17 02:07:32;;;;;;;20.00;17.48;;;;;;;23.91;65.68;98718.31;5034482;28;20048;-69
2021/07/17 02:09:59;;;;;;;36.22;31.38;;;;;;;24.09;64.46;98706.09;5051040;28;20041;-70
2021/07/17 02:12:25;;;;;;;34.65;30.88;;;;;;;24.28;64.42;98705.47;5050990;28;20044;-69
2021/07/17 02:14:52;;;;;;;32.45;28.15;;;;;;;24.50;63.46;98712.25;5052194;28;20055;-69
2021/07/17 02:17:18;;;;;;;28.48;25.02;;;;;;;24.73;62.65;98714.41;5050897;28;20044;-69
2021/07/17 02:19:44;;;;;;;31.70;22.75;;;;;;;24.93;61.91;98708.75;5034322;28;20448;-70
2021/07/17 02:22:10;;;;;;;22.60;19.42;;;;;;;25.17;61.20;98709.72;5034380;28;20041;-70
2021/07/17 02:24:36;;;;;;;29.73;23.25;;;;;;;25.29;60.69;98715.06;5034016;28;20036;-69
2021/07/17 02:27:03;;;;;;;26.05;22.73;;;;;;;25.57;59.83;98719.59;5050869;28;20183;-70
2021/07/17 02:29:28;;;;;;;35.00;29.35;;;;;;;25.80;59.04;98714.28;5033985;28;20184;-70
2021/07/17 02:31:54;;;;;;;38.60;32.03;;;;;;;25.98;58.30;98706.53;5050699;28;20609;-69
2021/07/17 02:34:20;;;;;;;37.13;33.13;;;;;;;26.15;57.59;98708.03;5033810;28;20112;-70
2021/07/17 02:36:46;;;;;;;26.90;24.08;;;;;;;26.25;57.40;98723.75;5033807;28;20045;-69
2021/07/17 02:39:14;;;;;;;23.67;18.67;;;;;;;26.34;57.59;98716.19;5050463;28;20052;-69
2021/07/17 02:41:40;;;;;;;21.17;17.58;;;;;;;26.51;56.92;98712.25;5067034;28;20060;-70
2021/07/17 02:44:06;;;;;;;21.00;16.77;;;;;;;26.70;56.29;98733.19;5051862;28;20045;-69
2021/07/17 02:46:32;;;;;;;24.02;18.70;;;;;;;26.77;56.11;98725.16;5017218;28;20037;-69
2021/07/17 02:48:58;;;;;;;18.88;16.38;;;;;;;26.89;55.76;98730.44;5033759;28;20047;-70
2021/07/17 02:51:24;;;;;;;17.80;15.90;;;;;;;27.05;55.65;98727.56;5017224;28;20190;-69
2021/07/17 02:53:51;;;;;;;26.40;19.10;;;;;;;27.21;54.72;98732.13;5051268;28;20064;-69
2021/07/17 02:56:17;;;;;;;22.27;19.05;;;;;;;27.26;55.07;98720.94;5017242;28;20078;-69
2021/07/17 02:58:43;;;;;;;27.42;21.73;;;;;;;27.39;54.34;98728.53;5051391;28;20498;-69
2021/07/17 03:01:08;;;;;;;25.80;22.65;;;;;;;27.44;54.09;98735.59;5051314;28;20136;-70
2021/07/17 03:03:34;;;;;;;29.23;23.90;;;;;;;27.50;54.15;98730.63;5050048;28;20123;-70
2021/07/17 03:06:00;;;;;;;27.23;22.33;;;;;;;27.68;54.05;98734.41;5050086;28;20044;-70
2021/07/17 03:08:26;;;;;;;24.90;21.42;;;;;;;27.85;53.57;98736.63;5049976;28;20085;-70
2021/07/17 03:10:53;;;;;;;29.58;21.85;;;;;;;28.05;52.75;98737.25;5051208;28;20037;-69
2021/07/17 03:13:19;;;;;;;27.88;22.00;;;;;;;28.28;52.28;98736.38;5051328;28;20127;-71
2021/07/17 03:15:50;;;;;;;22.33;19.85;;;;;;;28.43;51.90;98726.44;5033098;28;20040;-71
2021/07/17 03:18:17;;;;;;;22.52;20.23;;;;;;;28.61;51.56;98727.41;5033869;28;20056;-71
2021/07/17 03:20:45;;;;;;;25.60;20.30;;;;;;;28.67;51.34;98728.66;5050048;28;20033;-71
2021/07/17 03:23:11;;;;;;;20.42;15.98;;;;;;;28.88;50.47;98730.78;5033446;28;20049;-71
2021/07/17 03:25:37;;;;;;;24.73;19.60;;;;;;;28.95;50.22;98727.38;5033341;28;20051;-70
2021/07/17 03:28:02;;;;;;;20.52;18.05;;;;;;;29.13;49.64;98731.06;5033258;28;20128;-70
2021/07/17 03:30:28;;;;;;;22.80;19.65;;;;;;;29.29;49.24;98730.00;5051060;28;20486;-69
2021/07/17 03:32:54;;;;;;;21.70;19.48;;;;;;;29.30;49.18;98720.66;5033173;28;20052;-71
2021/07/17 03:35:20;;;;;;;19.58;17.20;;;;;;;29.46;49.87;98725.84;5051025;28;20037;-70
2021/07/17 03:37:46;;;;;;;19.27;17.23;;;;;;;29.68;48.92;98729.50;5051369;28;20095;-70
2021/07/17 03:40:13;;;;;;;21.67;18.20;;;;;;;29.82;48.12;98726.84;5051374;28;20090;-71
2021/07/17 03:42:38;;;;;;;20.02;17.42;;;;;;;29.94;47.57;98729.25;5066559;28;20037;-71
2021/07/17 03:45:05;;;;;;;21.58;17.77;;;;;;;29.99;47.62;98722.66;5033009;28;20041;-69
2021/07/17 03:47:31;;;;;;;18.92;15.40;;;;;;;30.11;47.77;98722.31;5051162;28;20135;-69
2021/07/17 03:49:57;;;;;;;20.77;17.05;;;;;;;30.09;47.34;98719.97;5049149;28;20131;-72
2021/07/17 03:52:22;;;;;;;17.83;15.80;;;;;;;30.22;47.04;98716.91;5050986;28;20082;-70
2021/07/17 03:54:49;;;;;;;19.85;14.90;;;;;;;30.30;47.09;98719.28;5033050;28;20045;-70
2021/07/17 03:57:16;;;;;;;16.50;13.65;;;;;;;30.32;46.79;98716.94;5000473;28;20052;-67
2021/07/17 03:59:42;;;;;;;20.20;16.75;;;;;;;30.41;46.73;98722.03;5049388;28;20053;-70
2021/07/17 04:02:08;;;;;;;22.95;18.33;;;;;;;30.46;46.79;98718.94;5066203;28;20541;-70
2021/07/17 04:04:39;;;;;;;28.15;21.42;;;;;;;30.41;47.02;98719.31;5050716;28;20036;-69
2021/07/17 04:07:05;;;;;;;27.27;21.80;;;;;;;30.49;47.15;98720.91;5049777;28;20490;-71
2021/07/17 04:09:32;;;;;;;18.80;15.65;;;;;;;30.59;47.51;98716.63;5049357;28;20048;-73
2021/07/17 04:11:57;;;;;;;17.70;15.32;;;;;;;30.70;47.18;98720.16;5033466;28;20037;-70
2021/07/17 04:14:23;;;;;;;16.70;14.40;;;;;;;30.69;46.77;98712.34;5050930;28;20132;-70
2021/07/17 04:16:49;;;;;;;17.02;14.60;;;;;;;30.72;47.29;98727.97;5050914;28;20378;-69
2021/07/17 04:19:16;;;;;;;15.93;14.00;;;;;;;30.61;47.54;98729.91;5049223;28;20495;-68
2021/07/17 04:21:42;;;;;;;19.27;14.85;;;;;;;30.57;48.14;98731.88;5050848;28;20059;-70
2021/07/17 04:24:08;;;;;;;15.77;13.73;;;;;;;30.64;47.75;98723.66;5050503;28;20036;-69
2021/07/17 04:26:34;;;;;;;15.80;14.27;;;;;;;30.76;47.99;98723.28;5051736;28;20414;-69
2021/07/17 04:29:00;;;;;;;15.43;13.20;;;;;;;30.72;47.60;98722.50;5036355;28;20049;-69
2021/07/17 04:31:25;;;;;;;16.40;12.98;;;;;;;30.85;47.07;98726.44;5019742;28;20055;-69
2021/07/17 04:33:51;;;;;;;16.20;12.75;;;;;;;31.01;46.51;98731.56;5054585;28;20041;-69
2021/07/17 04:36:17;;;;;;;14.90;13.38;;;;;;;30.91;46.62;98732.31;5036031;28;20413;-69
2021/07/17 04:38:43;;;;;;;14.93;12.93;;;;;;;31.03;46.51;98731.16;5053919;28;20417;-68
2021/07/17 04:41:09;;;;;;;14.07;12.68;;;;;;;30.91;46.84;98724.13;5036083;28;20037;-69
2021/07/17 04:43:35;;;;;;;15.77;13.38;;;;;;;31.08;46.19;98722.56;5055637;28;20047;-74
2021/07/17 04:46:00;;;;;;;16.10;13.50;;;;;;;31.22;45.81;98728.03;4999623;28;20041;-73
2021/07/17 04:48:26;;;;;;;15.15;12.98;;;;;;;31.43;45.65;98732.75;5015116;28;20517;-73
2021/07/17 04:50:53;;;;;;;14.60;13.18;;;;;;;31.40;45.89;98719.84;5015628;28;20041;-73
2021/07/17 04:53:19;;;;;;;14.45;12.93;;;;;;;31.60;45.21;98726.44;5016075;28;20095;-72
2021/07/17 04:55:45;;;;;;;15.57;13.57;;;;;;;31.64;45.38;98729.97;5034016;28;20052;-74
2021/07/17 04:58:10;;;;;;;14.85;13.35;;;;;;;31.69;45.40;98728.78;5032222;28;20049;-67
2021/07/17 05:00:36;;;;;;;14.15;12.27;;;;;;;31.81;45.13;98727.56;5012611;28;20052;-66
2021/07/17 05:03:02;;;;;;;13.70;12.38;;;;;;;31.99;44.71;98735.78;5032166;28;20045;-70
2021/07/17 05:05:28;;;;;;;14.73;13.20;;;;;;;32.08;44.72;98745.13;5033247;28;20073;-67
2021/07/17 05:07:54;;;;;;;16.02;13.60;;;;;;;32.22;44.20;98738.03;5015671;28;20041;-69
2021/07/17 05:10:23;;;;;;;14.73;13.25;;;;;;;31.99;43.88;98741.25;5015534;28;20048;-70
2021/07/17 05:12:49;;;;;;;15.73;12.43;;;;;;;31.75;44.09;98743.63;5032018;28;20049;-69
2021/07/17 05:15:16;;;;;;;15.80;12.98;;;;;;;31.54;44.77;98732.72;5014911;28;20537;-71
2021/07/17 05:17:42;;;;;;;13.95;12.13;;;;;;;31.32;44.54;98729.97;5031937;28;20056;-69
2021/07/17 05:20:09;;;;;;;15.20;13.10;;;;;;;31.15;44.78;98744.44;5031733;28;20041;-68
2021/07/17 05:22:35;;;;;;;14.82;12.90;;;;;;;31.09;45.44;98741.34;5031460;28;20140;-69
2021/07/17 05:25:03;;;;;;;16.88;12.68;;;;;;;31.05;45.85;98745.25;5031709;28;20045;-70
2021/07/17 05:27:29;;;;;;;15.05;12.88;;;;;;;31.07;45.98;98740.16;5033021;28;20080;-69
2021/07/17 05:29:54;;;;;;;14.55;11.82;;;;;;;31.00;45.79;98746.41;5014755;28;20494;-69
2021/07/17 05:32:20;;;;;;;16.40;13.85;;;;;;;30.94;46.33;98751.50;5032724;28;20045;-69
2021/07/17 05:34:46;;;;;;;14.98;13.02;;;;;;;30.85;47.62;98745.59;5032662;28;20490;-69
2021/07/17 05:37:12;;;;;;;15.85;13.90;;;;;;;30.73;48.40;98751.41;5031293;28;20140;-66
2021/07/17 05:39:38;;;;;;;17.02;14.10;;;;;;;30.64;48.24;98753.75;5032581;28;20052;-69
2021/07/17 05:42:05;;;;;;;14.45;12.85;;;;;;;30.54;47.63;98755.31;5031110;28;20067;-70
2021/07/17 05:44:31;;;;;;;14.45;12.43;;;;;;;30.38;46.32;98752.88;5031139;28;20095;-70
2021/07/17 05:46:57;;;;;;;16.42;12.75;;;;;;;30.20;46.13;98750.06;5031003;28;20048;-69
2021/07/17 05:49:23;;;;;;;14.70;12.70;;;;;;;30.08;46.59;98753.13;5031095;28;20042;-62
2021/07/17 05:51:49;;;;;;;17.73;13.13;;;;;;;29.85;47.28;98759.66;5047565;28;20388;-69
2021/07/17 05:54:15;;;;;;;16.48;13.25;;;;;;;29.80;48.60;98756.53;5014477;28;20041;-69
2021/07/17 05:56:41;;;;;;;14.43;12.93;;;;;;;29.80;47.54;98740.13;5047552;28;20050;-69
2021/07/17 05:59:07;;;;;;;15.85;12.82;;;;;;;29.72;48.16;98749.44;5032234;28;20061;-69
2021/07/17 06:01:32;;;;;;;14.93;13.43;;;;;;;29.72;49.58;98747.50;5030116;28;20053;-67
2021/07/17 06:04:00;;;;;;;15.77;13.15;;;;;;;29.68;49.08;98743.97;5032135;28;20049;-65
2021/07/17 06:06:25;;;;;;;15.20;13.18;;;;;;;29.75;48.45;98740.47;5031988;28;20046;-71
2021/07/17 06:08:51;;;;;;;13.68;12.25;;;;;;;29.71;47.87;98729.53;5030960;28;20052;-69
2021/07/17 06:11:17;;;;;;;16.50;12.82;;;;;;;29.84;48.60;98738.19;5031745;28;20045;-69
2021/07/17 06:13:43;;;;;;;15.75;13.30;;;;;;;29.85;48.21;98737.78;5032276;28;20061;-70
2021/07/17 06:16:09;;;;;;;17.67;14.38;;;;;;;29.88;49.13;98739.78;5031534;28;20090;-70
2021/07/17 06:18:34;;;;;;;18.83;14.10;;;;;;;29.93;49.94;98738.63;5030560;28;20053;-69
2021/07/17 06:21:00;;;;;;;16.98;14.40;;;;;;;29.96;49.82;98742.53;5039674;28;20028;-71
2021/07/17 06:23:26;;;;;;;18.77;14.15;;;;;;;30.00;49.12;98737.88;5086906;28;20036;-70
2021/07/17 06:25:52;;;;;;;16.90;14.85;;;;;;;29.93;48.91;98743.31;5087153;28;20115;-69
2021/07/17 06:28:18;;;;;;;17.05;13.48;;;;;;;29.87;47.93;98737.41;5053712;28;20064;-70
2021/07/17 06:30:44;;;;;;;17.05;13.25;;;;;;;29.86;47.70;98733.13;5069774;28;20526;-69
2021/07/17 06:33:10;;;;;;;15.10;13.48;;;;;;;29.90;48.57;98733.16;5072058;28;20056;-71
2021/07/17 06:35:36;;;;;;;16.75;14.05;;;;;;;29.90;48.97;98725.72;5071778;28;20048;-70
2021/07/17 06:38:02;;;;;;;20.45;14.45;;;;;;;29.91;48.43;98732.75;5071690;28;20061;-71
2021/07/17 06:40:28;;;;;;;15.90;14.30;;;;;;;29.88;48.59;98730.78;5053480;28;20505;-71
2021/07/17 06:42:54;;;;;;;15.60;13.95;;;;;;;29.92;48.66;98734.34;5053640;28;20048;-71
2021/07/17 06:45:20;;;;;;;15.35;13.65;;;;;;;29.99;47.91;98725.38;5070503;28;20201;-69
2021/07/17 06:47:48;;;;;;;19.17;14.38;;;;;;;30.01;47.73;98726.56;5071540;28;20135;-70
2021/07/17 06:50:18;;;;;;;16.65;13.05;;;;;;;29.91;47.22;98713.63;5052738;28;20040;-69
2021/07/17 06:52:47;;;;;;;16.75;13.93;;;;;;;30.05;46.75;98732.03;5053853;28;20141;-70
2021/07/17 06:55:13;;;;;;;15.57;13.45;;;;;;;30.00;47.17;98733.22;5053283;28;20067;-71
2021/07/17 06:57:41;;;;;;;15.27;13.68;;;;;;;29.99;47.61;98728.13;5052837;28;20053;-73
2021/07/17 07:00:11;;;;;;;17.05;14.25;;;;;;;29.96;47.70;98742.53;5069177;28;20129;-69
2021/07/17 07:02:37;;;;;;;16.45;14.70;;;;;;;29.95;46.27;98744.50;5053055;28;20097;-72
2021/07/17 07:05:06;;;;;;;14.45;12.93;;;;;;;29.96;47.10;98735.13;5069775;28;20520;-73
2021/07/17 07:07:32;;;;;;;17.13;14.15;;;;;;;30.06;47.70;98739.06;5069255;28;20057;-69
2021/07/17 07:09:57;;;;;;;16.95;14.82;;;;;;;30.15;47.64;98733.25;5069530;28;20045;-69
2021/07/17 07:12:24;;;;;;;16.00;14.38;;;;;;;30.13;46.67;98736.38;5069695;28;20080;-69
2021/07/17 07:14:49;;;;;;;14.55;13.05;;;;;;;30.09;46.20;98728.16;5086932;28;20036;-69
2021/07/17 07:17:27;;;;;;;17.10;14.80;;;;;;;30.09;46.25;98733.63;5053182;28;20060;-69
2021/07/17 07:19:53;;;;;;;14.85;13.35;;;;;;;30.13;47.02;98736.38;4969890;28;20128;-69
2021/07/17 07:22:19;;;;;;;14.10;12.80;;;;;;;30.15;46.27;98733.25;4971478;28;20563;-69
2021/07/17 07:24:45;;;;;;;14.43;12.93;;;;;;;30.12;46.93;98740.28;4990769;28;20035;-69
2021/07/17 07:27:11;;;;;;;15.10;13.43;;;;;;;30.11;46.03;98736.75;4974521;28;20188;-70
2021/07/17 07:29:37;;;;;;;13.48;12.20;;;;;;;30.12;45.06;98737.56;4990410;28;20508;-70
2021/07/17 07:32:03;;;;;;;15.90;13.57;;;;;;;30.15;45.44;98738.72;5006811;28;20042;-70
2021/07/17 07:34:29;;;;;;;13.38;12.18;;;;;;;30.08;44.61;98737.50;4990515;28;20038;-70
2021/07/17 07:36:55;;;;;;;16.92;13.00;;;;;;;30.10;44.49;98737.16;4991923;28;20322;-69
2021/07/17 07:39:21;;;;;;;16.52;12.98;;;;;;;30.15;44.60;98730.50;4991785;28;20509;-69
2021/07/17 07:41:46;;;;;;;14.27;12.77;;;;;;;30.18;44.84;98738.75;4990509;28;20232;-70
2021/07/17 07:44:12;;;;;;;14.68;13.18;;;;;;;30.17;44.57;98733.66;4992056;28;20038;-70
2021/07/17 07:46:38;;;;;;;14.88;13.25;;;;;;;30.15;44.06;98733.25;4990417;28;20128;-70
2021/07/17 07:49:05;;;;;;;14.02;12.55;;;;;;;30.16;43.48;98738.34;4990589;28;20189;-70
2021/07/17 07:51:31;;;;;;;16.63;14.43;;;;;;;30.17;43.55;98734.44;4990409;28;20053;-70
2021/07/17 07:53:58;;;;;;;14.70;13.20;;;;;;;30.24;43.51;98733.72;4990550;28;20116;-68
2021/07/17 07:56:24;;;;;;;14.48;13.02;;;;;;;30.18;44.01;98737.94;4990263;28;20042;-70
2021/07/17 07:58:49;;;;;;;16.08;13.93;;;;;;;30.24;44.69;98737.25;4990388;28;20634;-69
2021/07/17 08:01:15;;;;;;;16.52;14.98;;;;;;;30.28;46.05;98729.03;4992241;28;20595;-69
2021/07/17 08:03:41;;;;;;;16.85;15.25;;;;;;;30.26;45.76;98729.41;4995757;28;20141;-70
2021/07/17 08:06:07;;;;;;;15.45;13.95;;;;;;;30.28;45.50;98724.34;4977943;28;20137;-70
2021/07/17 08:08:33;;;;;;;16.15;14.57;;;;;;;30.23;45.60;98724.72;4995478;28;20078;-70
2021/07/17 08:11:00;;;;;;;16.08;14.38;;;;;;;30.31;45.43;98723.59;4994147;28;20042;-70
2021/07/17 08:13:26;;;;;;;16.70;14.25;;;;;;;30.34;44.26;98722.03;4977895;28;20054;-70
2021/07/17 08:15:53;;;;;;;15.85;14.35;;;;;;;30.33;44.08;98723.22;4994244;28;20042;-70
2021/07/17 08:18:19;;;;;;;17.13;15.35;;;;;;;30.30;45.97;98724.75;5009954;28;20496;-71
2021/07/17 08:20:46;;;;;;;17.00;15.05;;;;;;;30.28;46.89;98735.28;4977857;28;20057;-70
2021/07/17 08:23:12;;;;;;;16.63;14.95;;;;;;;30.32;46.37;98724.34;4993926;28;20054;-71
2021/07/17 08:25:38;;;;;;;17.42;15.70;;;;;;;30.37;46.45;98732.19;4977702;28;20152;-70
2021/07/17 08:28:04;;;;;;;14.88;13.20;;;;;;;30.45;43.95;98716.59;4995256;28;20523;-70
2021/07/17 08:30:33;;;;;;;15.55;13.93;;;;;;;30.50;44.22;98718.94;4993587;28;20524;-71
2021/07/17 08:33:00;;;;;;;15.75;14.20;;;;;;;30.42;44.30;98715.41;4993595;28;20062;-69
2021/07/17 08:35:25;;;;;;;15.65;14.07;;;;;;;30.50;43.90;98710.72;4993581;28;20053;-70
2021/07/17 08:37:51;;;;;;;15.35;13.77;;;;;;;30.59;43.59;98715.84;4993429;28;20145;-71
2021/07/17 08:40:17;;;;;;;15.27;13.77;;;;;;;30.61;44.12;98721.72;4993500;28;20053;-70
2021/07/17 08:42:45;;;;;;;15.80;14.20;;;;;;;30.50;43.70;98706.06;4993234;28;20046;-70
2021/07/17 08:45:12;;;;;;;19.90;16.17;;;;;;;30.62;43.77;98707.66;4994637;28;20129;-70
2021/07/17 08:47:41;;;;;;;16.13;14.63;;;;;;;30.69;44.14;98713.13;4993413;28;20057;-70
2021/07/17 08:50:08;;;;;;;15.77;14.18;;;;;;;30.72;44.00;98708.84;4994516;28;20042;-70
2021/07/17 08:52:34;;;;;;;15.38;13.75;;;;;;;30.59;43.27;98705.69;4993238;28;20069;-70
2021/07/17 08:55:04;;;;;;;14.77;13.18;;;;;;;30.49;43.50;98706.44;4994529;28;20566;-70
2021/07/17 08:57:38;;;;;;;14.38;12.98;;;;;;;30.50;43.60;98705.25;4993133;28;20053;-70
2021/07/17 09:00:08;;;;;;;16.40;13.75;;;;;;;30.64;43.77;98696.31;4993054;28;20039;-70
2021/07/17 09:02:39;;;;;;;16.23;13.60;;;;;;;30.78;41.48;98701.81;4993221;28;20435;-70
2021/07/17 09:05:13;;;;;;;14.00;12.57;;;;;;;30.90;42.18;98689.72;4993542;28;20419;-70
2021/07/17 09:07:39;;;;;;;14.90;13.32;;;;;;;30.84;42.38;98694.03;4994556;28;20047;-70
2021/07/17 09:10:31;;;;;;;15.30;13.88;;;;;;;30.72;42.33;98682.25;4994452;28;20116;-70
2021/07/17 09:13:10;;;;;;;14.52;13.13;;;;;;;30.84;42.24;98683.84;4992466;28;20056;-70
2021/07/17 09:15:37;;;;;;;15.35;13.82;;;;;;;30.96;42.21;98683.47;4992847;28;20081;-70
2021/07/17 09:18:04;;;;;;;14.25;12.93;;;;;;;31.08;41.74;98685.03;4992547;28;20070;-70
2021/07/17 09:20:30;;;;;;;14.70;13.18;;;;;;;31.28;41.32;98682.66;4994206;28;20042;-69
2021/07/17 09:22:57;;;;;;;14.57;13.18;;;;;;;31.48;40.90;98674.84;4992728;28;20100;-70
2021/07/17 09:25:24;;;;;;;14.48;13.15;;;;;;;31.65;40.27;98674.00;4992727;28;20531;-70
2021/07/17 09:27:49;;;;;;;14.93;13.43;;;;;;;31.52;40.45;98669.34;4994074;28;20566;-70
2021/07/17 09:30:24;;;;;;;15.60;13.65;;;;;;;31.59;40.69;98658.34;4992492;28;20042;-69
2021/07/17 09:33:06;;;;;;;17.75;15.95;;;;;;;31.80;39.65;98657.53;4993521;28;20054;-70
2021/07/17 09:35:36;;;;;;;14.30;12.90;;;;;;;32.08;40.24;98664.84;4993767;28;20125;-70
2021/07/17 09:38:03;;;;;;;14.73;13.25;;;;;;;32.38;38.92;98669.00;4992508;28;20050;-70
2021/07/17 09:40:42;;;;;;;15.25;13.85;;;;;;;32.60;37.94;98651.25;4976186;28;20058;-70
2021/07/17 09:43:09;;;;;;;;;;;;;;;32.85;37.38;98651.03;4994320;28;20068;-70
2021/07/17 09:45:36;;;;;;;14.75;13.35;;;;;;;33.09;37.93;98649.31;4992379;28;19928;-69
2021/07/17 09:48:28;;;;;;;15.40;13.80;;;;;;;33.15;36.65;98644.94;4993600;28;20046;-70
2021/07/17 09:50:55;;;;;;;14.55;13.15;;;;;;;33.07;37.23;98629.69;5008413;28;20133;-70
2021/07/17 09:53:41;;;;;;;14.50;13.20;;;;;;;33.01;36.87;98640.34;4993505;28;20042;-70
2021/07/17 09:56:12;;;;;;;15.38;13.85;;;;;;;32.86;37.91;98655.34;4993585;28;20050;-70
2021/07/17 09:58:39;;;;;;;16.10;13.20;;;;;;;32.33;39.54;98668.25;4992173;28;20105;-70
2021/07/17 10:01:38;;;;;;;13.30;11.57;;;;;;;31.55;41.19;98665.81;4991858;28;20135;-70
2021/07/17 10:04:08;;;;;;;14.93;11.27;;;;;;;30.94;43.07;98660.41;4992082;28;20416;-70
2021/07/17 10:06:44;;;;;;;12.75;11.18;;;;;;;30.54;43.06;98671.28;4993082;28;20042;-69
2021/07/17 10:09:16;;;;;;;12.50;11.30;;;;;;;30.16;43.47;98661.03;4992971;28;20112;-70
2021/07/17 10:11:44;;;;;;;13.10;11.85;;;;;;;29.84;44.39;98678.88;4992954;28;20048;-70
2021/07/17 10:14:21;;;;;;;13.63;11.88;;;;;;;29.57;44.93;98677.53;4991639;28;20046;-70
2021/07/17 10:16:49;;;;;;;20.75;11.70;;;;;;;29.34;46.82;98703.13;5008049;28;20053;-70
2021/07/17 10:19:16;;;;;;;;;;;;;;;28.86;46.79;98710.53;4993621;28;20058;-70
2021/07/17 10:21:43;;;;;;;11.18;9.98;;;;;;;28.34;48.61;98695.94;4991832;28;20024;-71
2021/07/17 10:24:11;;;;;;;11.25;10.10;;;;;;;28.12;49.03;98697.63;4990477;28;20046;-70
2021/07/17 10:26:37;;;;;;;12.10;9.70;;;;;;;27.94;50.00;98695.47;5007922;28;20069;-70
2021/07/17 10:29:11;;;;;;;12.30;10.15;;;;;;;27.71;50.45;98705.66;4992825;28;20046;-70
2021/07/17 10:31:38;;;;;;;19.00;11.00;;;;;;;27.38;51.99;98713.38;4992718;28;20137;-70
2021/07/17 10:34:05;;;;;;;14.68;11.25;;;;;;;27.18;53.41;98722.78;4991524;28;20578;-70
2021/07/17 10:36:35;;;;;;;14.60;10.93;;;;;;;26.92;53.66;98720.75;4991273;28;20046;-70
2021/07/17 10:39:04;;;;;;;15.48;11.20;;;;;;;26.62;54.70;98715.97;4991044;28;20053;-69
2021/07/17 10:41:35;;;;;;;16.33;11.63;;;;;;;26.44;55.72;98703.94;4991241;28;20516;-69
2021/07/17 10:44:02;;;;;;;16.45;12.02;;;;;;;26.37;56.48;98720.91;4991494;28;20077;-69
2021/07/17 10:46:32;;;;;;;17.83;11.93;;;;;;;26.29;58.00;98728.09;4991220;28;20042;-70
2021/07/17 10:49:00;;;;;;;17.13;13.70;;;;;;;26.18;58.80;98758.94;4991402;28;20046;-70
2021/07/17 10:51:30;;;;;;;19.00;13.30;;;;;;;25.87;60.92;98770.69;4991203;28;20527;-69
2021/07/17 10:53:58;;;;;;;16.73;11.90;;;;;;;25.63;60.30;98774.38;4991035;28;20101;-70
2021/07/17 10:56:27;;;;;;;14.70;12.02;;;;;;;25.47;59.98;98769.75;4992434;28;20104;-70
2021/07/17 10:58:57;;;;;;;14.68;11.68;;;;;;;25.46;60.41;98778.25;4992058;28;20054;-69
2021/07/17 11:01:23;;;;;;;13.88;10.45;;;;;;;25.36;60.96;98769.50;4992210;28;20069;-69
2021/07/17 11:03:51;;;;;;;16.25;10.93;;;;;;;25.21;62.59;98777.63;4991071;28;20050;-69
2021/07/17 11:06:27;;;;;;;11.25;9.35;;;;;;;25.02;62.75;98776.34;4992359;28;20149;-69
2021/07/17 11:08:54;;;;;;;13.88;11.15;;;;;;;24.90;63.33;98777.22;4991044;28;20399;-69
2021/07/17 11:11:34;;;;;;;12.05;10.13;;;;;;;24.83;62.83;98771.63;4990819;28;20190;-70
2021/07/17 11:14:06;;;;;;;11.38;10.00;;;;;;;24.71;63.29;98755.44;4990949;28;20046;-70
2021/07/17 11:16:46;;;;;;;12.60;9.65;;;;;;;24.66;63.55;98752.97;4990757;28;20478;-70